sensor_id;sensor_type;location;lat;lon;timestamp;pressure;altitude;pressure_sealevel;temperature;humidity
25130;BME280;13308;50.860;13.664;2023-04-08T04:34:08;96991.00;;;4.39;100.00
25130;BME280;13308;50.860;13.664;2023-04-08T04:36:33;96983.22;;;4.41;100.00
25130;BME280;13308;50.860;13.664;2023-04-08T04:38:59;96988.66;;;4.38;100.00
25130;BME280;13308;50.860;13.664;2023-04-08T04:41:25;96989.88;;;4.44;100.00
25130;BME280;13308;50.860;13.664;2023-04-08T04:43:51;96998.03;;;4.40;100.00
25130;BME280;13308;50.860;13.664;2023-04-08T04:46:16;96990.66;;;4.41;100.00
25130;BME280;13308;50.860;13.664;2023-04-08T04:48:42;96994.50;;;4.40;100.00
25130;BME280;13308;50.860;13.664;2023-04-08T04:51:07;97005.06;;;4.41;100.00
25130;BME280;13308;50.860;13.664;2023-04-08T04:53:32;97007.44;;;4.43;100.00
25130;BME280;13308;50.860;13.664;2023-04-08T04:55:58;96996.91;;;4.45;100.00
25130;BME280;13308;50.860;13.664;2023-04-08T04:58:25;97001.22;;;4.46;100.00
25130;BME280;13308;50.860;13.664;2023-04-08T05:00:50;96990.28;;;4.46;100.00
25130;BME280;13308;50.860;13.664;2023-04-08T05:03:15;97004.38;;;4.48;100.00
25130;BME280;13308;50.860;13.664;2023-04-08T05:05:41;96997.75;;;4.49;100.00
25130;BME280;13308;50.860;13.664;2023-04-08T05:08:06;97005.94;;;4.49;100.00
25130;BME280;13308;50.860;13.664;2023-04-08T05:10:32;97008.31;;;4.50;100.00
25130;BME280;13308;50.860;13.664;2023-04-08T05:12:57;97017.69;;;4.53;100.00
25130;BME280;13308;50.860;13.664;2023-04-08T05:15:22;97013.78;;;4.54;100.00
25130;BME280;13308;50.860;13.664;2023-04-08T05:17:48;97017.72;;;4.56;100.00
25130;BME280;13308;50.860;13.664;2023-04-08T05:20:13;97015.38;;;4.55;100.00
25130;BME280;13308;50.860;13.664;2023-04-08T05:22:38;97020.06;;;4.58;100.00
25130;BME280;13308;50.860;13.664;2023-04-08T05:25:04;97027.13;;;4.59;100.00
25130;BME280;13308;50.860;13.664;2023-04-08T05:27:30;97022.03;;;4.57;100.00
25130;BME280;13308;50.860;13.664;2023-04-08T05:29:55;97030.25;;;4.61;100.00
25130;BME280;13308;50.860;13.664;2023-04-08T05:32:21;97023.22;;;4.60;100.00
25130;BME280;13308;50.860;13.664;2023-04-08T05:34:46;97025.53;;;4.58;100.00
25130;BME280;13308;50.860;13.664;2023-04-08T05:37:11;97035.72;;;4.61;100.00
25130;BME280;13308;50.860;13.664;2023-04-08T05:39:37;97031.78;;;4.58;100.00
25130;BME280;13308;50.860;13.664;2023-04-08T05:42:02;97038.03;;;4.59;100.00
25130;BME280;13308;50.860;13.664;2023-04-08T05:44:27;97046.25;;;4.59;100.00
25130;BME280;13308;50.860;13.664;2023-04-08T05:46:53;97036.50;;;4.61;100.00
25130;BME280;13308;50.860;13.664;2023-04-08T05:49:19;97041.22;;;4.64;100.00
25130;BME280;13308;50.860;13.664;2023-04-08T05:51:45;97045.13;;;4.67;100.00
25130;BME280;13308;50.860;13.664;2023-04-08T05:54:10;97041.63;;;4.66;100.00
25130;BME280;13308;50.860;13.664;2023-04-08T05:56:35;97037.34;;;4.69;100.00
25130;BME280;13308;50.860;13.664;2023-04-08T05:59:01;97040.47;;;4.67;100.00
25130;BME280;13308;50.860;13.664;2023-04-08T06:01:26;97044.38;;;4.70;100.00
25130;BME280;13308;50.860;13.664;2023-04-08T06:03:51;97048.78;;;4.78;100.00
25130;BME280;13308;50.860;13.664;2023-04-08T06:06:17;97046.94;;;4.89;100.00
25130;BME280;13308;50.860;13.664;2023-04-08T06:08:42;97049.31;;;4.94;100.00
25130;BME280;13308;50.860;13.664;2023-04-08T06:11:07;97054.09;;;5.04;100.00
25130;BME280;13308;50.860;13.664;2023-04-08T06:13:33;97047.88;;;5.07;100.00
25130;BME280;13308;50.860;13.664;2023-04-08T06:16:11;97052.22;;;5.11;100.00
25130;BME280;13308;50.860;13.664;2023-04-08T06:18:37;97060.44;;;5.15;100.00
25130;BME280;13308;50.860;13.664;2023-04-08T06:21:02;97063.25;;;5.22;100.00
25130;BME280;13308;50.860;13.664;2023-04-08T06:23:28;97064.34;;;5.14;100.00
25130;BME280;13308;50.860;13.664;2023-04-08T06:25:53;97062.75;;;5.09;100.00
25130;BME280;13308;50.860;13.664;2023-04-08T06:28:18;97058.06;;;5.10;100.00
25130;BME280;13308;50.860;13.664;2023-04-08T06:30:44;97060.38;;;5.08;100.00
25130;BME280;13308;50.860;13.664;2023-04-08T06:33:09;97058.06;;;5.10;100.00
25130;BME280;13308;50.860;13.664;2023-04-08T06:35:34;97065.88;;;5.11;100.00
25130;BME280;13308;50.860;13.664;2023-04-08T06:38:02;97061.97;;;5.12;100.00
25130;BME280;13308;50.860;13.664;2023-04-08T06:40:27;97071.75;;;5.13;100.00
25130;BME280;13308;50.860;13.664;2023-04-08T06:42:52;97074.13;;;5.15;100.00
25130;BME280;13308;50.860;13.664;2023-04-08T06:45:27;97066.75;;;5.19;100.00
25130;BME280;13308;50.860;13.664;2023-04-08T06:47:53;97071.44;;;5.22;100.00
25130;BME280;13308;50.860;13.664;2023-04-08T06:50:20;97069.88;;;5.21;100.00
25130;BME280;13308;50.860;13.664;2023-04-08T06:52:45;97075.75;;;5.23;100.00
25130;BME280;13308;50.860;13.664;2023-04-08T06:55:11;97080.06;;;5.24;100.00
25130;BME280;13308;50.860;13.664;2023-04-08T06:57:36;97073.84;;;5.27;100.00
25130;BME280;13308;50.860;13.664;2023-04-08T07:00:01;97087.91;;;5.29;100.00
25130;BME280;13308;50.860;13.664;2023-04-08T07:02:27;97087.13;;;5.28;100.00
25130;BME280;13308;50.860;13.664;2023-04-08T07:04:52;97089.91;;;5.32;100.00
25130;BME280;13308;50.860;13.664;2023-04-08T07:07:18;97086.81;;;5.37;100.00
25130;BME280;13308;50.860;13.664;2023-04-08T07:09:43;97093.47;;;5.36;100.00
25130;BME280;13308;50.860;13.664;2023-04-08T07:12:11;97098.97;;;5.43;100.00
25130;BME280;13308;50.860;13.664;2023-04-08T07:14:36;97088.44;;;5.45;100.00
25130;BME280;13308;50.860;13.664;2023-04-08T07:17:01;97102.16;;;5.48;100.00
25130;BME280;13308;50.860;13.664;2023-04-08T07:19:27;97104.09;;;5.48;100.00
25130;BME280;13308;50.860;13.664;2023-04-08T07:21:52;97108.06;;;5.54;100.00
25130;BME280;13308;50.860;13.664;2023-04-08T07:24:17;97117.84;;;5.55;100.00
25130;BME280;13308;50.860;13.664;2023-04-08T07:26:43;97114.00;;;5.66;100.00
25130;BME280;13308;50.860;13.664;2023-04-08T07:29:08;97117.53;;;5.67;100.00
25130;BME280;13308;50.860;13.664;2023-04-08T07:31:34;97116.44;;;5.75;100.00
25130;BME280;13308;50.860;13.664;2023-04-08T07:34:00;97125.47;;;5.79;100.00
25130;BME280;13308;50.860;13.664;2023-04-08T07:36:25;97128.19;;;5.79;100.00
25130;BME280;13308;50.860;13.664;2023-04-08T07:38:50;97127.88;;;5.84;100.00
25130;BME280;13308;50.860;13.664;2023-04-08T07:41:16;97126.72;;;5.88;100.00
25130;BME280;13308;50.860;13.664;2023-04-08T07:43:41;97136.16;;;5.94;100.00
25130;BME280;13308;50.860;13.664;2023-04-08T07:46:07;97127.09;;;5.87;100.00
25130;BME280;13308;50.860;13.664;2023-04-08T07:48:33;97134.13;;;5.88;100.00
25130;BME280;13308;50.860;13.664;2023-04-08T07:51:03;97143.59;;;5.97;100.00
25130;BME280;13308;50.860;13.664;2023-04-08T07:53:29;97148.31;;;5.97;100.00
25130;BME280;13308;50.860;13.664;2023-04-08T07:55:54;97136.91;;;5.95;100.00
25130;BME280;13308;50.860;13.664;2023-04-08T07:58:19;97147.13;;;5.98;100.00
25130;BME280;13308;50.860;13.664;2023-04-08T08:00:45;97155.72;;;6.00;100.00
25130;BME280;13308;50.860;13.664;2023-04-08T08:03:10;97157.34;;;6.04;100.00
25130;BME280;13308;50.860;13.664;2023-04-08T08:05:35;97147.22;;;6.12;100.00
25130;BME280;13308;50.860;13.664;2023-04-08T08:08:01;97159.00;;;6.16;100.00
25130;BME280;13308;50.860;13.664;2023-04-08T08:10:27;97159.06;;;6.30;100.00
25130;BME280;13308;50.860;13.664;2023-04-08T08:12:52;97161.41;;;6.28;100.00
25130;BME280;13308;50.860;13.664;2023-04-08T08:15:17;97163.75;;;6.26;100.00
25130;BME280;13308;50.860;13.664;2023-04-08T08:17:43;97168.06;;;6.27;100.00
25130;BME280;13308;50.860;13.664;2023-04-08T08:20:08;97174.72;;;6.26;100.00
25130;BME280;13308;50.860;13.664;2023-04-08T08:22:34;97176.22;;;6.20;100.00
25130;BME280;13308;50.860;13.664;2023-04-08T08:24:59;97172.31;;;6.21;100.00
25130;BME280;13308;50.860;13.664;2023-04-08T08:27:25;97166.88;;;6.24;100.00
25130;BME280;13308;50.860;13.664;2023-04-08T08:29:51;97177.03;;;6.27;100.00
25130;BME280;13308;50.860;13.664;2023-04-08T08:32:17;97173.19;;;6.32;100.00
25130;BME280;13308;50.860;13.664;2023-04-08T08:34:42;97175.53;;;6.37;100.00
25130;BME280;13308;50.860;13.664;2023-04-08T08:37:07;97178.00;;;6.49;100.00
25130;BME280;13308;50.860;13.664;2023-04-08T08:39:33;97178.03;;;6.56;100.00
25130;BME280;13308;50.860;13.664;2023-04-08T08:41:58;97184.25;;;6.53;100.00
25130;BME280;13308;50.860;13.664;2023-04-08T08:44:23;97186.66;;;6.61;100.00
25130;BME280;13308;50.860;13.664;2023-04-08T08:46:49;97190.56;;;6.57;100.00
25130;BME280;13308;50.860;13.664;2023-04-08T08:49:14;97190.97;;;6.66;100.00
25130;BME280;13308;50.860;13.664;2023-04-08T08:51:40;97192.97;;;6.69;100.00
25130;BME280;13308;50.860;13.664;2023-04-08T08:54:06;97192.28;;;6.86;100.00
25130;BME280;13308;50.860;13.664;2023-04-08T08:56:32;97198.19;;;7.02;100.00
25130;BME280;13308;50.860;13.664;2023-04-08T08:58:58;97200.22;;;7.15;100.00
25130;BME280;13308;50.860;13.664;2023-04-08T09:01:34;97203.81;;;7.37;100.00
25130;BME280;13308;50.860;13.664;2023-04-08T09:06:41;97219.06;;;7.34;100.00
25130;BME280;13308;50.860;13.664;2023-04-08T09:09:07;97214.38;;;7.35;100.00
25130;BME280;13308;50.860;13.664;2023-04-08T09:11:43;97223.78;;;7.27;100.00
25130;BME280;13308;50.860;13.664;2023-04-08T09:14:21;97228.06;;;7.24;100.00
25130;BME280;13308;50.860;13.664;2023-04-08T09:16:47;97229.63;;;7.22;100.00
25130;BME280;13308;50.860;13.664;2023-04-08T09:19:12;97233.91;;;7.12;100.00
25130;BME280;13308;50.860;13.664;2023-04-08T09:21:38;97233.91;;;7.16;100.00
25130;BME280;13308;50.860;13.664;2023-04-08T09:24:05;97237.78;;;7.08;100.00
25130;BME280;13308;50.860;13.664;2023-04-08T09:26:31;97234.63;;;6.99;100.00
25130;BME280;13308;50.860;13.664;2023-04-08T09:29:01;97244.47;;;7.14;100.00
25130;BME280;13308;50.860;13.664;2023-04-08T09:31:37;97244.53;;;7.24;100.00
25130;BME280;13308;50.860;13.664;2023-04-08T09:34:11;97244.22;;;7.47;100.00
25130;BME280;13308;50.860;13.664;2023-04-08T09:36:37;97239.56;;;7.65;100.00
25130;BME280;13308;50.860;13.664;2023-04-08T09:39:03;97242.72;;;7.74;100.00
25130;BME280;13308;50.860;13.664;2023-04-08T09:41:32;97250.97;;;7.84;100.00
25130;BME280;13308;50.860;13.664;2023-04-08T09:43:58;97249.03;;;7.92;100.00
25130;BME280;13308;50.860;13.664;2023-04-08T09:46:39;97251.00;;;7.98;100.00
25130;BME280;13308;50.860;13.664;2023-04-08T09:49:10;97258.41;;;7.87;100.00
25130;BME280;13308;50.860;13.664;2023-04-08T09:54:12;97256.84;;;7.90;100.00
25130;BME280;13308;50.860;13.664;2023-04-08T09:56:43;97256.09;;;7.89;100.00
25130;BME280;13308;50.860;13.664;2023-04-08T09:59:13;97261.59;;;8.07;100.00
25130;BME280;13308;50.860;13.664;2023-04-08T10:01:45;97259.28;;;8.23;100.00
25130;BME280;13308;50.860;13.664;2023-04-08T10:04:14;97263.97;;;8.26;100.00
25130;BME280;13308;50.860;13.664;2023-04-08T10:06:51;97264.38;;;8.21;100.00
25130;BME280;13308;50.860;13.664;2023-04-08T10:09:20;97268.31;;;8.34;100.00
25130;BME280;13308;50.860;13.664;2023-04-08T10:11:46;97270.28;;;8.37;100.00
25130;BME280;13308;50.860;13.664;2023-04-08T10:14:12;97266.72;;;8.53;100.00
25130;BME280;13308;50.860;13.664;2023-04-08T10:16:37;97262.41;;;8.59;100.00
25130;BME280;13308;50.860;13.664;2023-04-08T10:19:35;97259.28;;;8.64;100.00
25130;BME280;13308;50.860;13.664;2023-04-08T10:22:01;97263.19;;;8.74;100.00
25130;BME280;13308;50.860;13.664;2023-04-08T10:24:26;97266.31;;;8.79;100.00
25130;BME280;13308;50.860;13.664;2023-04-08T10:26:52;97266.31;;;8.69;100.00
25130;BME280;13308;50.860;13.664;2023-04-08T10:31:43;97266.72;;;8.64;100.00
25130;BME280;13308;50.860;13.664;2023-04-08T10:34:18;97269.44;;;8.74;100.00
25130;BME280;13308;50.860;13.664;2023-04-08T10:36:44;97269.84;;;8.87;100.00
25130;BME280;13308;50.860;13.664;2023-04-08T10:39:11;97275.69;;;9.06;100.00
25130;BME280;13308;50.860;13.664;2023-04-08T10:41:45;97268.56;;;9.19;100.00
25130;BME280;13308;50.860;13.664;2023-04-08T10:44:43;97267.84;;;8.98;100.00
25130;BME280;13308;50.860;13.664;2023-04-08T10:47:37;97265.50;;;8.89;100.00
25130;BME280;13308;50.860;13.664;2023-04-08T10:50:20;97267.13;;;8.59;100.00
25130;BME280;13308;50.860;13.664;2023-04-08T10:52:53;97269.50;;;8.36;100.00
25130;BME280;13308;50.860;13.664;2023-04-08T10:55:23;97272.63;;;8.35;100.00
25130;BME280;13308;50.860;13.664;2023-04-08T10:57:50;97275.78;;;8.30;100.00
25130;BME280;13308;50.860;13.664;2023-04-08T11:00:31;97269.47;;;8.32;100.00
25130;BME280;13308;50.860;13.664;2023-04-08T11:03:00;97273.78;;;8.54;100.00
25130;BME280;13308;50.860;13.664;2023-04-08T11:05:25;97272.63;;;8.73;100.00
25130;BME280;13308;50.860;13.664;2023-04-08T11:07:51;97270.22;;;8.96;100.00
25130;BME280;13308;50.860;13.664;2023-04-08T11:10:16;97267.03;;;9.11;100.00
25130;BME280;13308;50.860;13.664;2023-04-08T11:12:42;97268.22;;;9.03;100.00
25130;BME280;13308;50.860;13.664;2023-04-08T11:15:07;97271.78;;;8.86;100.00
25130;BME280;13308;50.860;13.664;2023-04-08T11:17:33;97275.75;;;8.71;100.00
25130;BME280;13308;50.860;13.664;2023-04-08T11:19:59;97278.13;;;8.55;100.00
25130;BME280;13308;50.860;13.664;2023-04-08T11:22:27;97276.56;;;8.51;100.00
25130;BME280;13308;50.860;13.664;2023-04-08T11:24:54;97286.00;;;8.40;100.00
25130;BME280;13308;50.860;13.664;2023-04-08T11:27:20;97286.75;;;8.33;100.00
25130;BME280;13308;50.860;13.664;2023-04-08T11:29:50;97291.06;;;8.38;100.00
25130;BME280;13308;50.860;13.664;2023-04-08T11:32:15;97283.63;;;8.42;100.00
25130;BME280;13308;50.860;13.664;2023-04-08T11:34:41;97293.06;;;8.44;100.00
25130;BME280;13308;50.860;13.664;2023-04-08T11:37:06;97293.06;;;8.44;100.00
25130;BME280;13308;50.860;13.664;2023-04-08T11:39:31;97294.63;;;8.35;100.00
25130;BME280;13308;50.860;13.664;2023-04-08T11:41:57;97297.38;;;8.35;100.00
25130;BME280;13308;50.860;13.664;2023-04-08T11:44:31;97296.97;;;8.26;100.00
25130;BME280;13308;50.860;13.664;2023-04-08T11:46:57;97296.97;;;8.32;100.00
25130;BME280;13308;50.860;13.664;2023-04-08T11:49:23;97293.44;;;8.43;100.00
25130;BME280;13308;50.860;13.664;2023-04-08T11:51:58;97295.00;;;8.43;100.00
25130;BME280;13308;50.860;13.664;2023-04-08T11:54:30;97288.34;;;8.31;100.00
25130;BME280;13308;50.860;13.664;2023-04-08T11:56:57;97296.19;;;8.32;100.00
25130;BME280;13308;50.860;13.664;2023-04-08T11:59:25;97299.31;;;8.24;100.00
25130;BME280;13308;50.860;13.664;2023-04-08T12:01:51;97291.06;;;8.38;100.00
25130;BME280;13308;50.860;13.664;2023-04-08T12:04:17;97301.69;;;8.36;100.00
25130;BME280;13308;50.860;13.664;2023-04-08T12:06:42;97295.00;;;8.23;100.00
25130;BME280;13308;50.860;13.664;2023-04-08T12:09:11;97300.88;;;8.32;100.00
25130;BME280;13308;50.860;13.664;2023-04-08T12:11:36;97294.63;;;8.35;100.00
25130;BME280;13308;50.860;13.664;2023-04-08T12:14:02;97300.13;;;8.28;100.00
25130;BME280;13308;50.860;13.664;2023-04-08T12:16:27;97302.88;;;8.31;100.00
25130;BME280;13308;50.860;13.664;2023-04-08T12:18:52;97305.19;;;8.32;100.00
25130;BME280;13308;50.860;13.664;2023-04-08T12:21:18;97300.91;;;8.46;100.00
25130;BME280;13308;50.860;13.664;2023-04-08T12:23:43;97305.59;;;8.55;100.00
25130;BME280;13308;50.860;13.664;2023-04-08T12:26:08;97311.91;;;8.59;100.00
25130;BME280;13308;50.860;13.664;2023-04-08T12:28:34;97312.69;;;8.63;100.00
25130;BME280;13308;50.860;13.664;2023-04-08T12:31:00;97311.91;;;8.63;100.00
25130;BME280;13308;50.860;13.664;2023-04-08T12:33:26;97320.53;;;8.61;100.00
25130;BME280;13308;50.860;13.664;2023-04-08T12:35:51;97324.09;;;8.58;100.00
25130;BME280;13308;50.860;13.664;2023-04-08T12:38:17;97319.34;;;8.45;100.00
25130;BME280;13308;50.860;13.664;2023-04-08T12:40:42;97321.31;;;8.34;100.00
25130;BME280;13308;50.860;13.664;2023-04-08T12:43:07;97321.31;;;8.38;100.00
25130;BME280;13308;50.860;13.664;2023-04-08T12:45:33;97320.91;;;8.46;100.00
25130;BME280;13308;50.860;13.664;2023-04-08T12:47:58;97328.41;;;8.49;100.00
25130;BME280;13308;50.860;13.664;2023-04-08T12:50:23;97324.47;;;8.53;100.00
25130;BME280;13308;50.860;13.664;2023-04-08T12:52:48;97322.88;;;8.63;100.00
25130;BME280;13308;50.860;13.664;2023-04-08T12:55:14;97313.47;;;8.78;100.00
25130;BME280;13308;50.860;13.664;2023-04-08T12:57:40;97322.88;;;8.77;100.00
25130;BME280;13308;50.860;13.664;2023-04-08T13:00:06;97322.47;;;8.82;100.00
25130;BME280;13308;50.860;13.664;2023-04-08T13:02:31;97324.09;;;8.58;100.00
25130;BME280;13308;50.860;13.664;2023-04-08T13:04:56;97318.97;;;8.47;100.00
25130;BME280;13308;50.860;13.664;2023-04-08T13:07:22;97324.06;;;8.38;100.00
25130;BME280;13308;50.860;13.664;2023-04-08T13:09:47;97318.94;;;8.29;100.00
25130;BME280;13308;50.860;13.664;2023-04-08T13:12:13;97323.66;;;8.29;100.00
25130;BME280;13308;50.860;13.664;2023-04-08T13:14:38;97325.63;;;8.32;100.00
25130;BME280;13308;50.860;13.664;2023-04-08T13:17:03;97326.00;;;8.27;100.00
25130;BME280;13308;50.860;13.664;2023-04-08T13:19:29;97329.94;;;8.32;100.00
25130;BME280;13308;50.860;13.664;2023-04-08T13:21:55;97329.97;;;8.43;100.00
25130;BME280;13308;50.860;13.664;2023-04-08T13:24:20;97334.66;;;8.49;100.00
25130;BME280;13308;50.860;13.664;2023-04-08T13:26:45;97331.53;;;8.51;100.00
25130;BME280;13308;50.860;13.664;2023-04-08T13:29:11;97333.09;;;8.62;100.00
25130;BME280;13308;50.860;13.664;2023-04-08T13:31:36;97334.69;;;8.70;100.00
25130;BME280;13308;50.860;13.664;2023-04-08T13:34:01;97341.72;;;8.82;100.00
25130;BME280;13308;50.860;13.664;2023-04-08T13:36:27;97339.38;;;8.94;100.00
25130;BME280;13308;50.860;13.664;2023-04-08T13:38:52;97339.34;;;9.15;100.00
25130;BME280;13308;50.860;13.664;2023-04-08T13:41:19;97344.06;;;9.18;100.00
25130;BME280;13308;50.860;13.664;2023-04-08T13:43:45;97340.09;;;9.30;100.00
25130;BME280;13308;50.860;13.664;2023-04-08T13:46:10;97334.56;;;9.40;100.00
25130;BME280;13308;50.860;13.664;2023-04-08T13:48:35;97336.91;;;9.42;100.00
25130;BME280;13308;50.860;13.664;2023-04-08T13:51:01;97335.41;;;9.23;99.79
25130;BME280;13308;50.860;13.664;2023-04-08T13:53:26;97333.84;;;9.01;100.00
25130;BME280;13308;50.860;13.664;2023-04-08T13:55:51;97341.34;;;8.83;100.00
25130;BME280;13308;50.860;13.664;2023-04-08T13:58:19;97336.22;;;8.82;100.00
25130;BME280;13308;50.860;13.664;2023-04-08T14:00:46;97342.53;;;8.65;100.00
25130;BME280;13308;50.860;13.664;2023-04-08T14:03:11;97340.19;;;8.74;100.00
25130;BME280;13308;50.860;13.664;2023-04-08T14:05:36;97340.16;;;8.81;100.00
25130;BME280;13308;50.860;13.664;2023-04-08T14:08:02;97348.41;;;8.98;100.00
25130;BME280;13308;50.860;13.664;2023-04-08T14:10:27;97348.41;;;9.05;100.00
25130;BME280;13308;50.860;13.664;2023-04-08T14:12:52;97345.22;;;9.21;100.00
25130;BME280;13308;50.860;13.664;2023-04-08T14:15:18;97340.13;;;9.12;98.94
25130;BME280;13308;50.860;13.664;2023-04-08T14:17:43;97358.25;;;8.82;98.77
25130;BME280;13308;50.860;13.664;2023-04-08T14:20:09;97359.44;;;8.77;97.51
25130;BME280;13308;50.860;13.664;2023-04-08T14:22:34;97355.47;;;8.43;99.97
25130;BME280;13308;50.860;13.664;2023-04-08T14:25:00;97357.41;;;8.29;100.00
25130;BME280;13308;50.860;13.664;2023-04-08T14:27:25;97354.22;;;8.17;100.00
25130;BME280;13308;50.860;13.664;2023-04-08T14:29:50;97356.56;;;8.07;100.00
25130;BME280;13308;50.860;13.664;2023-04-08T14:32:16;97355.38;;;8.02;100.00
25130;BME280;13308;50.860;13.664;2023-04-08T14:34:41;97358.06;;;7.88;100.00
25130;BME280;13308;50.860;13.664;2023-04-08T14:37:06;97359.59;;;7.75;100.00
25130;BME280;13308;50.860;13.664;2023-04-08T14:39:31;97357.25;;;7.77;100.00
25130;BME280;13308;50.860;13.664;2023-04-08T14:41:57;97357.97;;;7.60;99.54
25130;BME280;13308;50.860;13.664;2023-04-08T14:44:22;97359.50;;;7.54;98.84
25130;BME280;13308;50.860;13.664;2023-04-08T14:46:48;97369.66;;;7.46;99.00
25130;BME280;13308;50.860;13.664;2023-04-08T14:49:13;97366.50;;;7.41;99.45
25130;BME280;13308;50.860;13.664;2023-04-08T14:51:38;97364.50;;;7.38;99.01
25130;BME280;13308;50.860;13.664;2023-04-08T14:54:03;97361.75;;;7.38;99.62
25130;BME280;13308;50.860;13.664;2023-04-08T14:56:29;97362.53;;;7.35;100.00
25130;BME280;13308;50.860;13.664;2023-04-08T14:58:55;97360.16;;;7.30;100.00
25130;BME280;13308;50.860;13.664;2023-04-08T15:01:20;97369.56;;;7.29;100.00
25130;BME280;13308;50.860;13.664;2023-04-08T15:03:46;97368.75;;;7.25;100.00
25130;BME280;13308;50.860;13.664;2023-04-08T15:06:11;97364.03;;;7.18;100.00
25130;BME280;13308;50.860;13.664;2023-04-08T15:08:41;97369.50;;;7.15;100.00
25130;BME280;13308;50.860;13.664;2023-04-08T15:11:09;97374.16;;;7.11;100.00
25130;BME280;13308;50.860;13.664;2023-04-08T15:13:35;97380.81;;;7.10;100.00
25130;BME280;13308;50.860;13.664;2023-04-08T15:16:00;97384.34;;;7.10;100.00
25130;BME280;13308;50.860;13.664;2023-04-08T15:18:26;97373.38;;;7.14;100.00
25130;BME280;13308;50.860;13.664;2023-04-08T15:20:51;97378.81;;;7.07;100.00
25130;BME280;13308;50.860;13.664;2023-04-08T15:23:17;97388.63;;;7.08;100.00
25130;BME280;13308;50.860;13.664;2023-04-08T15:25:42;97385.47;;;7.06;100.00
25130;BME280;13308;50.860;13.664;2023-04-08T15:28:07;97386.63;;;7.01;100.00
25130;BME280;13308;50.860;13.664;2023-04-08T15:30:33;97392.03;;;6.91;100.00
25130;BME280;13308;50.860;13.664;2023-04-08T15:33:03;97389.69;;;6.93;100.00
25130;BME280;13308;50.860;13.664;2023-04-08T15:35:28;97388.91;;;6.92;100.00
25130;BME280;13308;50.860;13.664;2023-04-08T15:37:53;97392.00;;;6.87;100.00
25130;BME280;13308;50.860;13.664;2023-04-08T15:40:19;97398.28;;;6.88;100.00
25130;BME280;13308;50.860;13.664;2023-04-08T15:42:44;97398.69;;;6.90;100.00
25130;BME280;13308;50.860;13.664;2023-04-08T15:45:10;97401.03;;;6.91;100.00
25130;BME280;13308;50.860;13.664;2023-04-08T15:47:35;97401.41;;;6.90;100.00
25130;BME280;13308;50.860;13.664;2023-04-08T15:50:01;97406.88;;;6.86;100.00
25130;BME280;13308;50.860;13.664;2023-04-08T15:52:26;97406.50;;;6.88;100.00
25130;BME280;13308;50.860;13.664;2023-04-08T15:54:52;97409.63;;;6.90;100.00
25130;BME280;13308;50.860;13.664;2023-04-08T15:57:17;97405.00;;;6.97;100.00
25130;BME280;13308;50.860;13.664;2023-04-08T15:59:42;97413.94;;;6.87;100.00
25130;BME280;13308;50.860;13.664;2023-04-08T16:02:08;97410.03;;;6.88;100.00
25130;BME280;13308;50.860;13.664;2023-04-08T16:04:33;97416.28;;;6.89;100.00
25130;BME280;13308;50.860;13.664;2023-04-08T16:06:58;97428.03;;;6.86;100.00
25130;BME280;13308;50.860;13.664;2023-04-08T16:09:24;97416.28;;;6.85;100.00
25130;BME280;13308;50.860;13.664;2023-04-08T16:11:51;97424.88;;;6.84;100.00
25130;BME280;13308;50.860;13.664;2023-04-08T16:14:17;97430.78;;;6.86;100.00
25130;BME280;13308;50.860;13.664;2023-04-08T16:16:42;97427.22;;;6.85;100.00
25130;BME280;13308;50.860;13.664;2023-04-08T16:19:08;97432.69;;;6.82;100.00
25130;BME280;13308;50.860;13.664;2023-04-08T16:21:33;97431.88;;;6.78;100.00
25130;BME280;13308;50.860;13.664;2023-04-08T16:23:58;97434.22;;;6.76;100.00
25130;BME280;13308;50.860;13.664;2023-04-08T16:26:24;97436.16;;;6.75;100.00
25130;BME280;13308;50.860;13.664;2023-04-08T16:28:51;97436.94;;;6.76;100.00
25130;BME280;13308;50.860;13.664;2023-04-08T16:31:17;97435.75;;;6.73;100.00
25130;BME280;13308;50.860;13.664;2023-04-08T16:33:42;97433.78;;;6.70;100.00
25130;BME280;13308;50.860;13.664;2023-04-08T16:36:08;97443.88;;;6.63;100.00
25130;BME280;13308;50.860;13.664;2023-04-08T16:38:33;97443.06;;;6.62;100.00
25130;BME280;13308;50.860;13.664;2023-04-08T16:41:00;97440.75;;;6.61;100.00
25130;BME280;13308;50.860;13.664;2023-04-08T16:43:25;97443.13;;;6.66;100.00
25130;BME280;13308;50.860;13.664;2023-04-08T16:45:51;97444.72;;;6.67;100.00
25130;BME280;13308;50.860;13.664;2023-04-08T16:48:17;97442.69;;;6.60;100.00
25130;BME280;13308;50.860;13.664;2023-04-08T16:50:43;97447.34;;;6.60;100.00
25130;BME280;13308;50.860;13.664;2023-04-08T16:53:08;97441.06;;;6.56;100.00
25130;BME280;13308;50.860;13.664;2023-04-08T16:55:34;97447.28;;;6.53;100.00
25130;BME280;13308;50.860;13.664;2023-04-08T16:58:01;97448.00;;;6.43;100.00
25130;BME280;13308;50.860;13.664;2023-04-08T17:00:27;97450.28;;;6.37;100.00
25130;BME280;13308;50.860;13.664;2023-04-08T17:02:52;97454.22;;;6.40;100.00
25130;BME280;13308;50.860;13.664;2023-04-08T17:05:21;97454.22;;;6.40;100.00
25130;BME280;13308;50.860;13.664;2023-04-08T17:07:46;97450.22;;;6.34;100.00
25130;BME280;13308;50.860;13.664;2023-04-08T17:10:11;97453.31;;;6.29;100.00
25130;BME280;13308;50.860;13.664;2023-04-08T17:12:37;97458.78;;;6.29;100.00
25130;BME280;13308;50.860;13.664;2023-04-08T17:15:02;97458.31;;;6.20;100.00
25130;BME280;13308;50.860;13.664;2023-04-08T17:17:28;97467.25;;;6.17;100.00
25130;BME280;13308;50.860;13.664;2023-04-08T17:19:53;97469.59;;;6.15;100.00
25130;BME280;13308;50.860;13.664;2023-04-08T17:22:18;97470.75;;;6.14;100.00
25130;BME280;13308;50.860;13.664;2023-04-08T17:24:44;97470.31;;;6.12;100.00
25130;BME280;13308;50.860;13.664;2023-04-08T17:27:10;97471.91;;;6.13;100.00